createdAt,value
2018-08-19T00:02:28.147Z,95892.00
2018-08-19T00:05:11.290Z,95889.00
2018-08-19T00:07:41.011Z,95894.00
2018-08-19T00:10:11.012Z,95899.00
2018-08-19T00:12:44.953Z,95897.00
2018-08-19T00:15:15.276Z,95891.00
2018-08-19T00:17:45.075Z,95901.00
2018-08-19T00:20:15.111Z,95889.00
2018-08-19T00:22:45.100Z,95891.00
2018-08-19T00:25:31.809Z,95888.00
2018-08-19T00:28:01.748Z,95895.00
2018-08-19T00:30:33.473Z,95888.00
2018-08-19T00:33:03.535Z,95898.00
2018-08-19T00:35:34.052Z,95893.00
2018-08-19T00:38:03.812Z,95897.00
2018-08-19T00:40:33.459Z,95909.00
2018-08-19T00:43:03.125Z,95894.00
2018-08-19T00:45:33.409Z,95900.00
2018-08-19T00:48:03.083Z,95901.00
2018-08-19T00:50:33.671Z,95896.00
2018-08-19T00:53:03.828Z,95902.00
2018-08-19T00:55:38.843Z,95903.00
2018-08-19T00:58:19.687Z,95904.00
2018-08-19T01:00:49.307Z,95898.00
2018-08-19T01:03:19.001Z,95895.00
2018-08-19T01:05:48.946Z,95892.00
2018-08-19T01:08:18.719Z,95904.00
2018-08-19T01:10:48.269Z,95900.00
2018-08-19T01:13:17.835Z,95908.00
2018-08-19T01:15:47.471Z,95909.00
2018-08-19T01:18:17.033Z,95916.00
2018-08-19T01:20:46.783Z,95905.00
2018-08-19T01:23:16.604Z,95909.00
2018-08-19T01:25:46.209Z,95905.00
2018-08-19T01:28:15.799Z,95904.00
2018-08-19T01:30:46.018Z,95908.00
2018-08-19T01:33:16.865Z,95903.00
2018-08-19T01:35:47.090Z,95904.00
2018-08-19T01:38:16.657Z,95912.00
2018-08-19T01:40:46.159Z,95908.00
2018-08-19T01:43:15.682Z,95905.00
2018-08-19T01:45:45.239Z,95908.00
2018-08-19T01:48:15.014Z,95900.00
2018-08-19T01:50:44.847Z,95909.00
2018-08-19T01:53:15.158Z,95912.00
2018-08-19T01:55:44.990Z,95912.00
2018-08-19T01:58:14.685Z,95910.00
2018-08-19T02:00:44.270Z,95903.00
2018-08-19T02:03:13.986Z,95909.00
2018-08-19T02:05:43.774Z,95902.00
2018-08-19T02:08:14.532Z,95906.00
2018-08-19T02:10:44.348Z,95908.00
2018-08-19T02:13:14.061Z,95905.00
2018-08-19T02:15:43.765Z,95915.00
2018-08-19T02:18:13.558Z,95905.00
2018-08-19T02:20:43.246Z,95910.00
2018-08-19T02:23:13.593Z,95908.00
2018-08-19T02:25:45.383Z,95907.00
2018-08-19T02:28:19.405Z,95901.00
2018-08-19T02:30:54.342Z,95909.00
2018-08-19T02:33:24.537Z,95915.00
2018-08-19T02:35:59.245Z,95906.00
2018-08-19T02:38:28.893Z,95906.00
2018-08-19T02:40:58.393Z,95900.00
2018-08-19T02:43:28.317Z,95901.00
2018-08-19T02:45:57.884Z,95887.00
2018-08-19T02:48:46.243Z,95893.00
2018-08-19T02:51:17.411Z,95889.00
2018-08-19T02:53:48.399Z,95892.00
2018-08-19T02:56:18.681Z,95888.00
2018-08-19T02:58:49.409Z,95885.00
2018-08-19T03:01:19.142Z,95893.00
2018-08-19T03:03:48.710Z,95893.00
2018-08-19T03:06:18.227Z,95896.00
2018-08-19T03:08:55.947Z,95896.00
2018-08-19T03:11:26.194Z,95896.00
2018-08-19T03:13:57.064Z,95893.00
2018-08-19T03:16:26.632Z,95900.00
2018-08-19T03:18:56.326Z,95891.00
2018-08-19T03:21:26.056Z,95895.00
2018-08-19T03:23:55.703Z,95889.00
2018-08-19T03:26:25.204Z,95884.00
2018-08-19T03:28:55.093Z,95892.00
2018-08-19T03:31:25.006Z,95891.00
2018-08-19T03:33:54.616Z,95894.00
2018-08-19T03:36:24.804Z,95896.00
2018-08-19T03:39:12.908Z,95886.00
2018-08-19T03:41:43.295Z,95886.00
2018-08-19T03:44:13.621Z,95891.00
2018-08-19T03:46:43.237Z,95888.00
2018-08-19T03:49:12.905Z,95891.00
2018-08-19T03:51:43.651Z,95889.00
2018-08-19T03:54:14.327Z,95885.00
2018-08-19T03:56:43.929Z,95888.00
2018-08-19T03:59:13.430Z,95897.00
2018-08-19T04:01:46.615Z,95895.00
2018-08-19T04:04:17.591Z,95888.00
2018-08-19T04:06:47.307Z,95901.00
2018-08-19T04:09:16.927Z,95890.00
2018-08-19T04:11:59.209Z,95891.00
2018-08-19T04:14:30.305Z,95904.00
2018-08-19T04:17:01.033Z,95898.00
2018-08-19T04:19:31.310Z,95904.00
2018-08-19T04:22:03.704Z,95905.00
2018-08-19T04:24:34.147Z,95913.00
2018-08-19T04:27:12.693Z,95903.00
2018-08-19T04:29:42.158Z,95911.00
2018-08-19T04:32:19.387Z,95907.00
2018-08-19T04:34:49.017Z,95907.00
2018-08-19T04:37:18.818Z,95899.00
2018-08-19T04:39:48.422Z,95909.00
2018-08-19T04:42:18.091Z,95905.00
2018-08-19T04:44:47.663Z,95891.00
2018-08-19T04:47:30.044Z,95900.00
2018-08-19T04:50:00.702Z,95892.00
2018-08-19T04:52:32.230Z,95905.00
2018-08-19T04:55:02.623Z,95898.00
2018-08-19T04:57:32.088Z,95899.00
2018-08-19T05:00:01.684Z,95902.00
2018-08-19T05:02:32.146Z,95908.00
2018-08-19T05:05:01.853Z,95912.00
2018-08-19T05:07:32.819Z,95915.00
2018-08-19T05:10:03.405Z,95916.00
2018-08-19T05:12:33.691Z,95913.00
2018-08-19T05:15:04.089Z,95915.00
2018-08-19T05:17:33.780Z,95916.00
2018-08-19T05:20:14.715Z,95920.00
2018-08-19T05:22:44.977Z,95918.00
2018-08-19T05:25:15.101Z,95915.00
2018-08-19T05:27:46.956Z,95921.00
2018-08-19T05:30:17.403Z,95922.00
2018-08-19T05:32:51.175Z,95922.00
2018-08-19T05:35:20.711Z,95928.00
2018-08-19T05:37:52.848Z,95925.00
2018-08-19T05:40:22.396Z,95922.00
2018-08-19T05:42:52.041Z,95937.00
2018-08-19T05:45:22.319Z,95920.00
2018-08-19T05:48:08.554Z,95920.00
2018-08-19T05:50:38.114Z,95927.00
2018-08-19T05:53:08.265Z,95925.00
2018-08-19T05:55:38.473Z,95931.00
2018-08-19T05:58:07.948Z,95934.00
2018-08-19T06:00:42.288Z,95936.00
2018-08-19T06:03:13.871Z,95931.00
2018-08-19T06:05:47.945Z,95943.00
2018-08-19T06:08:18.333Z,95944.00
2018-08-19T06:10:48.242Z,95936.00
2018-08-19T06:13:17.908Z,95942.00
2018-08-19T06:15:49.009Z,95935.00
2018-08-19T06:18:18.829Z,95943.00
2018-08-19T06:20:49.617Z,95949.00
2018-08-19T06:23:21.666Z,95946.00
2018-08-19T06:25:51.495Z,95950.00
2018-08-19T06:28:21.120Z,95944.00
2018-08-19T06:30:51.513Z,95947.00
2018-08-19T06:33:22.477Z,95951.00
2018-08-19T06:35:52.193Z,95947.00
2018-08-19T06:38:21.740Z,95937.00
2018-08-19T06:40:51.655Z,95939.00
2018-08-19T06:43:21.187Z,95938.00
2018-08-19T06:45:51.423Z,95948.00
2018-08-19T06:48:20.933Z,95945.00
2018-08-19T06:50:51.556Z,95945.00
2018-08-19T06:53:26.828Z,95935.00
2018-08-19T06:55:56.401Z,95940.00
2018-08-19T06:58:26.618Z,95941.00
2018-08-19T07:00:56.256Z,95938.00
2018-08-19T07:03:25.901Z,95942.00
2018-08-19T07:06:09.191Z,95938.00
2018-08-19T07:08:41.448Z,95939.00
2018-08-19T07:11:10.994Z,95934.00
2018-08-19T07:13:40.688Z,95944.00
2018-08-19T07:16:11.808Z,95932.00
2018-08-19T07:18:41.413Z,95932.00
2018-08-19T07:21:11.018Z,95935.00
2018-08-19T07:23:40.631Z,95925.00
2018-08-19T07:26:10.842Z,95930.00
2018-08-19T07:28:40.322Z,95931.00
2018-08-19T07:31:10.346Z,95937.00
2018-08-19T07:33:40.386Z,95934.00
2018-08-19T07:36:10.289Z,95946.00
2018-08-19T07:38:39.968Z,95945.00
2018-08-19T07:41:09.497Z,95931.00
2018-08-19T07:43:38.979Z,95929.00
2018-08-19T07:46:09.443Z,95937.00
2018-08-19T07:48:39.281Z,95942.00
2018-08-19T07:51:09.763Z,95929.00
2018-08-19T07:53:39.668Z,95928.00
2018-08-19T07:56:09.291Z,95927.00
2018-08-19T07:58:42.534Z,95923.00
2018-08-19T08:01:12.128Z,95925.00
2018-08-19T08:03:42.133Z,95922.00
2018-08-19T08:06:12.092Z,95931.00
2018-08-19T08:08:41.843Z,95930.00
2018-08-19T08:11:12.432Z,95931.00
2018-08-19T08:13:43.047Z,95933.00
2018-08-19T08:16:12.812Z,95928.00
2018-08-19T08:18:42.422Z,95933.00
2018-08-19T08:21:14.791Z,95926.00
2018-08-19T08:23:44.349Z,95935.00
2018-08-19T08:26:14.028Z,95937.00
2018-08-19T08:28:52.473Z,95938.00
2018-08-19T08:31:22.730Z,95937.00
2018-08-19T08:33:52.335Z,95940.00
2018-08-19T08:36:22.006Z,95927.00
2018-08-19T08:38:51.854Z,95929.00
2018-08-19T08:41:21.404Z,95923.00
2018-08-19T08:43:50.970Z,95926.00
2018-08-19T08:46:20.978Z,95928.00
2018-08-19T08:48:50.510Z,95923.00
2018-08-19T08:51:20.793Z,95922.00
2018-08-19T08:53:51.521Z,95923.00
2018-08-19T08:56:21.143Z,95916.00
2018-08-19T08:58:51.690Z,95911.00
2018-08-19T09:01:22.326Z,95907.00
2018-08-19T09:03:53.427Z,95915.00
2018-08-19T09:06:29.652Z,95910.00
2018-08-19T09:08:59.575Z,95909.00
2018-08-19T09:11:29.834Z,95911.00
2018-08-19T09:13:59.952Z,95908.00
2018-08-19T09:16:30.401Z,95903.00
2018-08-19T09:19:00.017Z,95907.00
2018-08-19T09:21:29.603Z,95908.00
2018-08-19T09:23:59.237Z,95903.00
2018-08-19T09:26:29.040Z,95914.00
2018-08-19T09:28:58.675Z,95910.00
2018-08-19T09:31:28.434Z,95907.00
2018-08-19T09:33:58.642Z,95909.00
2018-08-19T09:36:28.512Z,95899.00
2018-08-19T09:38:59.217Z,95901.00
2018-08-19T09:41:28.689Z,95899.00
2018-08-19T09:43:58.773Z,95906.00
2018-08-19T09:46:28.404Z,95900.00
2018-08-19T09:48:58.829Z,95897.00
2018-08-19T09:51:30.003Z,95893.00
2018-08-19T09:53:59.552Z,95899.00
2018-08-19T09:56:34.280Z,95892.00
2018-08-19T09:59:05.466Z,95899.00
2018-08-19T10:01:45.430Z,95892.00
2018-08-19T10:04:22.658Z,95888.00
2018-08-19T10:07:13.574Z,95890.00
2018-08-19T10:09:43.304Z,95879.00
2018-08-19T10:12:14.693Z,95878.00
2018-08-19T10:14:44.349Z,95876.00
2018-08-19T10:17:14.670Z,95874.00
2018-08-19T10:19:45.872Z,95875.00
2018-08-19T10:22:16.073Z,95866.00
2018-08-19T10:24:46.520Z,95868.00
2018-08-19T10:27:16.424Z,95867.00
2018-08-19T10:29:46.906Z,95864.00
2018-08-19T10:32:16.652Z,95866.00
2018-08-19T10:34:46.365Z,95862.00
2018-08-19T10:37:16.438Z,95862.00
2018-08-19T10:39:46.686Z,95862.00
2018-08-19T10:42:24.691Z,95859.00
2018-08-19T10:44:54.916Z,95856.00
2018-08-19T10:47:24.527Z,95855.00
2018-08-19T10:50:10.353Z,95851.00
2018-08-19T10:52:42.693Z,95857.00
2018-08-19T10:55:13.335Z,95850.00
2018-08-19T10:57:43.551Z,95856.00
2018-08-19T11:00:19.092Z,95849.00
2018-08-19T11:02:48.998Z,95855.00
2018-08-19T11:05:19.527Z,95841.00
2018-08-19T11:07:49.392Z,95848.00
2018-08-19T11:10:21.057Z,95848.00
2018-08-19T11:12:54.373Z,95847.00
2018-08-19T11:15:49.822Z,95846.00
2018-08-19T11:18:39.804Z,95846.00
2018-08-19T11:21:13.704Z,95838.00
2018-08-19T11:23:44.950Z,95843.00
2018-08-19T11:26:14.660Z,95833.00
2018-08-19T11:28:54.795Z,95844.00
2018-08-19T11:31:30.463Z,95837.00
2018-08-19T11:34:04.875Z,95837.00
2018-08-19T11:36:40.466Z,95828.00
2018-08-19T11:39:14.322Z,95834.00
2018-08-19T11:41:44.360Z,95824.00
2018-08-19T11:44:15.927Z,95823.00
2018-08-19T11:46:46.698Z,95821.00
2018-08-19T11:49:19.041Z,95827.00
2018-08-19T11:51:58.001Z,95821.00
2018-08-19T11:54:28.519Z,95820.00
2018-08-19T11:57:06.813Z,95818.00
2018-08-19T11:59:37.117Z,95818.00
2018-08-19T12:02:10.779Z,95810.00
2018-08-19T12:04:40.564Z,95813.00
2018-08-19T12:07:10.247Z,95812.00
2018-08-19T12:09:45.407Z,95810.00
2018-08-19T12:12:16.283Z,95814.00
2018-08-19T12:14:46.830Z,95811.00
2018-08-19T12:17:16.663Z,95804.00
2018-08-19T12:19:46.252Z,95796.00
2018-08-19T12:22:17.704Z,95797.00
2018-08-19T12:24:49.113Z,95795.00
2018-08-19T12:27:23.394Z,95797.00
2018-08-19T12:30:03.044Z,95800.00
2018-08-19T12:32:32.888Z,95795.00
2018-08-19T12:35:03.064Z,95792.00
2018-08-19T12:37:33.540Z,95784.00
2018-08-19T12:40:03.320Z,95784.00
2018-08-19T12:42:38.548Z,95780.00
2018-08-19T12:45:09.464Z,95780.00
2018-08-19T12:47:39.079Z,95781.00
2018-08-19T12:50:15.440Z,95776.00
2018-08-19T12:52:45.340Z,95775.00
2018-08-19T12:55:16.889Z,95777.00
2018-08-19T12:57:51.137Z,95774.00
2018-08-19T13:00:23.213Z,95770.00
2018-08-19T13:02:53.393Z,95764.00
2018-08-19T13:05:23.627Z,95759.00
2018-08-19T13:07:53.420Z,95761.00
2018-08-19T13:10:23.695Z,95757.00
2018-08-19T13:12:55.121Z,95759.00
2018-08-19T13:15:27.501Z,95755.00
2018-08-19T13:17:58.148Z,95753.00
2018-08-19T13:20:27.871Z,95744.00
2018-08-19T13:23:01.800Z,95757.00
2018-08-19T13:25:31.750Z,95749.00
2018-08-19T13:28:01.316Z,95759.00
2018-08-19T13:30:31.382Z,95748.00
2018-08-19T13:33:00.999Z,95750.00
2018-08-19T13:35:30.508Z,95743.00
2018-08-19T13:38:00.166Z,95745.00
2018-08-19T13:40:29.776Z,95747.00
2018-08-19T13:43:00.142Z,95741.00
2018-08-19T13:45:29.971Z,95737.00
2018-08-19T13:47:59.532Z,95745.00
2018-08-19T13:50:29.647Z,95740.00
2018-08-19T13:52:59.224Z,95735.00
2018-08-19T13:55:28.710Z,95740.00
2018-08-19T13:57:58.698Z,95733.00
2018-08-19T14:00:33.222Z,95729.00
2018-08-19T14:03:02.822Z,95730.00
2018-08-19T14:05:32.349Z,95725.00
2018-08-19T14:08:01.964Z,95721.00
2018-08-19T14:10:32.229Z,95725.00
2018-08-19T14:13:02.030Z,95725.00
2018-08-19T14:15:31.765Z,95727.00
2018-08-19T14:18:01.405Z,95726.00
2018-08-19T14:20:30.940Z,95729.00
2018-08-19T14:23:00.560Z,95720.00
2018-08-19T14:25:30.389Z,95722.00
2018-08-19T14:28:01.180Z,95717.00
2018-08-19T14:30:30.793Z,95710.00
2018-08-19T14:33:00.203Z,95709.00
2018-08-19T14:35:29.701Z,95704.00
2018-08-19T14:38:00.227Z,95701.00
2018-08-19T14:40:30.839Z,95704.00
2018-08-19T14:43:00.713Z,95711.00
2018-08-19T14:45:30.496Z,95706.00
2018-08-19T14:48:00.207Z,95699.00
2018-08-19T14:50:29.887Z,95695.00
2018-08-19T14:53:00.334Z,95698.00
2018-08-19T14:55:30.484Z,95698.00
2018-08-19T14:58:00.027Z,95700.00
2018-08-19T15:00:29.685Z,95694.00
2018-08-19T15:02:59.278Z,95696.00
2018-08-19T15:05:29.203Z,95699.00
2018-08-19T15:08:06.898Z,95685.00
2018-08-19T15:10:37.143Z,95694.00
2018-08-19T15:13:06.828Z,95692.00
2018-08-19T15:15:36.973Z,95687.00
2018-08-19T15:18:06.570Z,95684.00
2018-08-19T15:20:41.382Z,95685.00
2018-08-19T15:23:19.810Z,95676.00
2018-08-19T15:25:49.428Z,95679.00
2018-08-19T15:28:19.448Z,95684.00
2018-08-19T15:30:53.097Z,95685.00
2018-08-19T15:33:23.884Z,95667.00
2018-08-19T15:35:53.741Z,95676.00
2018-08-19T15:38:27.673Z,95675.00
2018-08-19T15:40:57.479Z,95676.00
2018-08-19T15:43:27.619Z,95670.00
2018-08-19T15:45:57.160Z,95668.00
2018-08-19T15:48:26.572Z,95666.00
2018-08-19T15:51:01.526Z,95668.00
2018-08-19T15:53:31.479Z,95664.00
2018-08-19T15:56:01.697Z,95667.00
2018-08-19T15:58:31.913Z,95665.00
2018-08-19T16:01:11.907Z,95662.00
2018-08-19T16:03:41.487Z,95662.00
2018-08-19T16:06:11.069Z,95657.00
2018-08-19T16:08:40.876Z,95663.00
2018-08-19T16:11:10.433Z,95663.00
2018-08-19T16:13:40.618Z,95669.00
2018-08-19T16:16:14.784Z,95667.00
2018-08-19T16:18:45.069Z,95663.00
2018-08-19T16:21:15.560Z,95667.00
2018-08-19T16:23:45.523Z,95668.00
2018-08-19T16:26:15.101Z,95676.00
2018-08-19T16:28:44.869Z,95659.00
2018-08-19T16:31:14.836Z,95664.00
2018-08-19T16:33:44.421Z,95658.00
2018-08-19T16:36:14.613Z,95665.00
2018-08-19T16:38:45.106Z,95660.00
2018-08-19T16:41:15.440Z,95662.00
2018-08-19T16:43:45.384Z,95670.00
2018-08-19T16:46:15.080Z,95655.00
2018-08-19T16:48:45.592Z,95659.00
2018-08-19T16:51:15.598Z,95662.00
2018-08-19T16:53:46.169Z,95656.00
2018-08-19T16:56:16.056Z,95655.00
2018-08-19T16:58:46.379Z,95665.00
2018-08-19T17:01:18.158Z,95654.00
2018-08-19T17:03:47.836Z,95658.00
2018-08-19T17:06:18.276Z,95659.00
2018-08-19T17:08:48.053Z,95658.00
2018-08-19T17:11:17.759Z,95656.00
2018-08-19T17:13:47.890Z,95657.00
2018-08-19T17:16:17.424Z,95658.00
2018-08-19T17:18:47.747Z,95662.00
2018-08-19T17:21:18.071Z,95659.00
2018-08-19T17:23:52.173Z,95663.00
2018-08-19T17:26:23.599Z,95662.00
2018-08-19T17:28:53.502Z,95659.00
2018-08-19T17:31:23.171Z,95659.00
2018-08-19T17:33:53.163Z,95662.00
2018-08-19T17:36:27.043Z,95652.00
2018-08-19T17:38:57.014Z,95658.00
2018-08-19T17:41:27.837Z,95656.00
2018-08-19T17:43:59.925Z,95652.00
2018-08-19T17:46:29.632Z,95657.00
2018-08-19T17:48:59.850Z,95653.00
2018-08-19T17:51:37.190Z,95660.00
2018-08-19T17:54:25.591Z,95664.00
2018-08-19T17:56:56.864Z,95668.00
2018-08-19T17:59:27.571Z,95663.00
2018-08-19T18:01:57.196Z,95672.00
2018-08-19T18:04:38.112Z,95668.00
2018-08-19T18:07:13.716Z,95668.00
2018-08-19T18:09:47.452Z,95669.00
2018-08-19T18:12:17.062Z,95669.00
2018-08-19T18:14:46.722Z,95667.00
2018-08-19T18:17:16.787Z,95671.00
2018-08-19T18:19:47.124Z,95665.00
2018-08-19T18:22:20.452Z,95672.00
2018-08-19T18:25:01.225Z,95678.00
2018-08-19T18:27:34.195Z,95674.00
2018-08-19T18:30:04.031Z,95676.00
2018-08-19T18:35:05.721Z,95675.00
2018-08-19T18:37:36.215Z,95676.00
2018-08-19T18:40:06.255Z,95684.00
2018-08-19T18:42:40.961Z,95689.00
2018-08-19T18:45:12.643Z,95686.00
2018-08-19T18:47:50.739Z,95682.00
2018-08-19T18:50:25.569Z,95692.00
2018-08-19T18:52:55.319Z,95688.00
2018-08-19T18:55:25.811Z,95688.00
2018-08-19T18:57:56.715Z,95691.00
2018-08-19T19:00:27.495Z,95698.00
2018-08-19T19:02:59.544Z,95698.00
2018-08-19T19:05:44.832Z,95687.00
2018-08-19T19:08:18.212Z,95687.00
2018-08-19T19:10:55.689Z,95693.00
2018-08-19T19:13:26.125Z,95693.00
2018-08-19T19:15:56.679Z,95691.00
2018-08-19T19:18:27.384Z,95699.00
2018-08-19T19:21:05.200Z,95701.00
2018-08-19T19:23:42.300Z,95696.00
2018-08-19T19:26:12.185Z,95707.00
2018-08-19T19:28:42.769Z,95701.00
2018-08-19T19:31:15.348Z,95700.00
2018-08-19T19:33:45.922Z,95700.00
2018-08-19T19:36:18.410Z,95704.00
2018-08-19T19:38:53.776Z,95705.00
2018-08-19T19:41:35.560Z,95709.00
2018-08-19T19:44:23.442Z,95703.00
2018-08-19T19:46:54.060Z,95705.00
2018-08-19T19:49:24.993Z,95710.00
2018-08-19T19:51:59.784Z,95701.00
2018-08-19T19:54:31.240Z,95704.00
2018-08-19T19:57:01.233Z,95704.00
2018-08-19T19:59:34.096Z,95708.00
2018-08-19T20:02:03.781Z,95702.00
2018-08-19T20:04:36.857Z,95705.00
2018-08-19T20:07:06.549Z,95710.00
2018-08-19T20:09:37.673Z,95715.00
2018-08-19T20:12:14.471Z,95709.00
2018-08-19T20:14:49.705Z,95709.00
2018-08-19T20:17:20.509Z,95711.00
2018-08-19T20:19:50.668Z,95720.00
2018-08-19T20:22:20.450Z,95710.00
2018-08-19T20:24:50.154Z,95721.00
2018-08-19T20:27:20.525Z,95709.00
2018-08-19T20:29:54.536Z,95714.00
2018-08-19T20:32:24.227Z,95721.00
2018-08-19T20:34:54.537Z,95721.00
2018-08-19T20:37:27.017Z,95718.00
2018-08-19T20:39:56.737Z,95719.00
2018-08-19T20:42:26.362Z,95721.00
2018-08-19T20:44:57.565Z,95719.00
2018-08-19T20:47:27.090Z,95735.00
2018-08-19T20:49:57.605Z,95724.00
2018-08-19T20:52:50.192Z,95723.00
2018-08-19T20:55:19.784Z,95734.00
2018-08-19T20:57:50.077Z,95740.00
2018-08-19T21:00:19.597Z,95731.00
2018-08-19T21:02:50.432Z,95740.00
2018-08-19T21:05:20.927Z,95740.00
2018-08-19T21:07:51.045Z,95735.00
2018-08-19T21:10:20.850Z,95739.00
2018-08-19T21:12:50.598Z,95739.00
2018-08-19T21:15:24.196Z,95737.00
2018-08-19T21:17:53.937Z,95740.00
2018-08-19T21:20:23.648Z,95744.00
2018-08-19T21:22:54.897Z,95749.00
2018-08-19T21:25:25.261Z,95746.00
2018-08-19T21:27:55.671Z,95749.00
2018-08-19T21:30:26.256Z,95745.00
2018-08-19T21:32:56.745Z,95742.00
2018-08-19T21:35:31.985Z,95745.00
2018-08-19T21:38:01.859Z,95748.00
2018-08-19T21:40:37.169Z,95747.00
2018-08-19T21:43:07.536Z,95753.00
2018-08-19T21:45:38.185Z,95743.00
2018-08-19T21:48:14.543Z,95734.00
2018-08-19T21:50:44.782Z,95738.00
2018-08-19T21:53:16.911Z,95739.00
2018-08-19T21:55:48.791Z,95740.00
2018-08-19T21:58:18.443Z,95747.00
2018-08-19T22:00:57.463Z,95744.00
2018-08-19T22:03:32.444Z,95742.00
2018-08-19T22:06:09.220Z,95740.00
2018-08-19T22:08:39.368Z,95748.00
2018-08-19T22:11:09.022Z,95730.00
2018-08-19T22:13:38.605Z,95740.00
2018-08-19T22:16:10.132Z,95739.00
2018-08-19T22:18:40.052Z,95736.00
2018-08-19T22:21:15.664Z,95740.00
2018-08-19T22:23:46.719Z,95745.00
2018-08-19T22:26:18.408Z,95745.00
2018-08-19T22:29:06.982Z,95747.00
2018-08-19T22:31:36.992Z,95740.00
2018-08-19T22:34:06.752Z,95738.00
2018-08-19T22:36:36.992Z,95744.00
2018-08-19T22:39:10.660Z,95742.00
2018-08-19T22:41:40.284Z,95750.00
2018-08-19T22:44:10.510Z,95742.00
2018-08-19T22:46:40.837Z,95749.00
2018-08-19T22:49:10.420Z,95748.00
2018-08-19T22:51:39.944Z,95747.00
2018-08-19T22:54:10.212Z,95743.00
2018-08-19T22:56:39.760Z,95758.00
2018-08-19T22:59:09.634Z,95754.00
2018-08-19T23:01:44.516Z,95749.00
2018-08-19T23:04:14.052Z,95746.00
2018-08-19T23:06:43.720Z,95740.00
2018-08-19T23:09:13.400Z,95737.00
2018-08-19T23:11:47.682Z,95747.00
2018-08-19T23:14:34.073Z,95750.00
2018-08-19T23:17:06.935Z,95744.00
2018-08-19T23:19:37.520Z,95747.00
2018-08-19T23:22:06.947Z,95742.00
2018-08-19T23:24:37.063Z,95740.00
2018-08-19T23:27:07.165Z,95744.00
2018-08-19T23:29:37.687Z,95742.00
2018-08-19T23:32:07.422Z,95748.00
2018-08-19T23:34:37.044Z,95737.00
2018-08-19T23:37:07.513Z,95740.00
2018-08-19T23:39:37.938Z,95744.00
2018-08-19T23:42:08.095Z,95740.00
2018-08-19T23:44:37.602Z,95739.00
2018-08-19T23:47:07.448Z,95738.00
2018-08-19T23:49:37.998Z,95735.00
2018-08-19T23:52:07.787Z,95742.00
2018-08-19T23:54:37.452Z,95743.00
2018-08-19T23:57:07.724Z,95736.00
2018-08-19T23:59:37.942Z,95732.00
